Air Navigation Services of Czech Republic
Airport: LKPD Updated:  11.08.2020 01:00:27  UTC
 METAR LKPD 11.08. 01:00 ...
METAR LKPD 110100Z 23005KT CAVOK 19/19 Q1018 RMK BLU=
 TAF LKPD 10.08. 23:00 ...
TAF LKPD 102300Z 1100/1200 VRB02KT CAVOK      TEMPO 1109/1118 03010G20KT SCT040TCU      PROB30 TEMPO 1111/1117 10016G26KT 4000 TSRA SCT030CB=